Time,TemperatureF,DewpointF,PressureIn,WindDirection,WindDirectionDegrees,WindSpeedMPH,WindSpeedGustMPH,Humidity,HourlyPrecipIn,Conditions,Clouds,dailyrainin,SolarRadiationWatts/m^2,SoftwareType,DateUTC
2013-07-25 11:02:00,83.0,75.0,29.73,East,90,2.0,3.0,77,0.00,,,0.03,29.000000,,2013-07-25 16:02:00,
2013-07-25 11:12:00,83.0,75.0,29.73,SSE,158,1.0,5.0,76,0.00,,,0.03,75.000000,,2013-07-25 16:12:00,
2013-07-25 11:33:00,85.0,76.0,29.58,ENE,59,0.0,3.0,74,0.00,,,0.03,49.000000,,2013-07-25 16:33:00,
2013-07-25 11:45:00,86.0,76.0,27.83,ENE,61,1.0,3.0,73,0.00,,,0.03,81.000000,,2013-07-25 16:45:00,
2013-07-25 12:02:00,87.0,76.0,27.73,SE,132,0.0,1.0,69,0.00,,,0.03,34.000000,,2013-07-25 17:02:00,
2013-07-25 12:12:00,88.0,77.0,28.12,SE,126,0.0,3.0,70,0.00,,,0.03,77.000000,,2013-07-25 17:12:00,
2013-07-25 12:32:00,88.0,76.0,28.84,ESE,119,0.0,3.0,67,0.00,,,0.03,92.000000,,2013-07-25 17:32:00,
2013-07-25 12:43:00,89.0,77.0,28.77,SE,126,0.0,5.0,67,0.00,,,0.03,94.000000,,2013-07-25 17:43:00,
2013-07-25 12:53:00,90.0,76.0,28.76,SW,220,0.0,5.0,64,0.00,,,0.03,95.000000,,2013-07-25 17:53:00,
2013-07-25 13:02:00,92.0,79.0,28.76,WSW,256,0.0,3.0,67,0.00,,,0.03,103.000000,,2013-07-25 18:02:00,
2013-07-25 13:12:00,93.0,78.0,28.76,West,266,0.0,3.0,62,0.00,,,0.03,92.000000,,2013-07-25 18:12:00,
2013-07-25 13:22:00,93.0,78.0,28.76,ESE,114,0.0,3.0,61,0.00,,,0.03,103.000000,,2013-07-25 18:22:00,
2013-07-25 13:33:00,94.0,77.0,28.76,SSE,164,1.0,3.0,58,0.00,,,0.03,92.000000,,2013-07-25 18:33:00,
2013-07-25 13:43:00,93.0,77.0,27.67,East,101,0.0,3.0,59,0.00,,,0.03,24.000000,,2013-07-25 18:43:00,
2013-07-25 14:02:00,92.0,76.0,28.25,NE,48,0.0,3.0,60,0.00,,,0.03,68.000000,,2013-07-25 19:02:00,
2013-07-25 14:12:00,93.0,77.0,27.92,WNW,286,2.0,6.0,59,0.00,,,0.03,72.000000,,2013-07-25 19:12:00,
2013-07-25 14:33:00,93.0,76.0,27.92,WNW,297,0.0,6.0,58,0.00,,,0.03,46.000000,,2013-07-25 19:33:00,
2013-07-25 14:42:00,93.0,75.0,27.92,NNE,12,1.0,3.0,57,0.00,,,0.03,44.000000,,2013-07-25 19:42:00,
2013-07-25 15:02:00,93.0,76.0,28.35,NNE,30,0.0,2.0,58,0.00,,,0.03,42.000000,,2013-07-25 20:02:00,
2013-07-25 15:12:00,93.0,77.0,28.59,ENE,65,1.0,3.0,60,0.00,,,0.03,47.000000,,2013-07-25 20:12:00,
2013-07-25 15:32:00,92.0,76.0,28.59,NE,56,1.0,3.0,60,0.00,,,0.03,39.000000,,2013-07-25 20:32:00,
2013-07-25 15:43:00,93.0,77.0,28.59,NE,42,1.0,5.0,59,0.00,,,0.03,39.000000,,2013-07-25 20:43:00,
2013-07-25 16:02:00,93.0,75.0,29.11,SSE,149,1.0,5.0,57,0.00,,,0.03,37.000000,,2013-07-25 21:02:00,
2013-07-25 16:12:00,93.0,77.0,29.57,ENE,72,0.0,3.0,60,0.00,,,0.03,32.000000,,2013-07-25 21:12:00,
2013-07-25 16:32:00,93.0,77.0,28.69,NE,55,0.0,6.0,59,0.00,,,0.03,22.000000,,2013-07-25 21:32:00,
2013-07-25 16:44:00,93.0,76.0,29.49,SSE,152,1.0,5.0,58,0.00,,,0.03,24.000000,,2013-07-25 21:44:00,
2013-07-25 17:02:00,93.0,75.0,29.42,SSE,147,1.0,5.0,56,0.00,,,0.03,13.000000,,2013-07-25 22:02:00,
2013-07-25 17:12:00,94.0,75.0,29.78,NE,56,0.0,5.0,55,0.00,,,0.03,14.000000,,2013-07-25 22:12:00,
2013-07-25 17:32:00,93.0,74.0,29.49,ESE,117,0.0,5.0,55,0.00,,,0.03,22.000000,,2013-07-25 22:32:00,
2013-07-25 17:43:00,93.0,74.0,29.54,NE,40,0.0,3.0,55,0.00,,,0.03,17.000000,,2013-07-25 22:43:00,
2013-07-25 17:52:00,93.0,74.0,29.54,ENE,62,0.0,3.0,55,0.00,,,0.03,26.000000,,2013-07-25 22:52:00,
2013-07-25 18:02:00,93.0,74.0,29.54,SSE,148,1.0,7.0,54,0.00,,,0.03,16.000000,,2013-07-25 23:02:00,
2013-07-25 18:12:00,93.0,74.0,29.31,NE,42,0.0,3.0,54,0.00,,,0.03,29.000000,,2013-07-25 23:12:00,
2013-07-25 18:32:00,93.0,75.0,29.66,SSE,157,1.0,8.0,56,0.00,,,0.03,26.000000,,2013-07-25 23:32:00,
2013-07-25 18:43:00,92.0,75.0,29.69,SSE,153,1.0,8.0,57,0.00,,,0.03,4.000000,,2013-07-25 23:43:00,
2013-07-25 19:02:00,90.0,73.0,29.21,SE,144,1.0,5.0,58,0.00,,,0.03,9.000000,,2013-07-26 00:02:00,
2013-07-25 19:12:00,90.0,73.0,29.21,SSE,152,1.0,6.0,58,0.00,,,0.03,11.000000,,2013-07-26 00:12:00,
2013-07-25 19:32:00,90.0,73.0,29.66,SSE,159,1.0,5.0,57,0.00,,,0.03,7.000000,,2013-07-26 00:32:00,
2013-07-25 19:43:00,90.0,73.0,29.26,SSE,147,1.0,7.0,57,0.00,,,0.03,7.000000,,2013-07-26 00:43:00,
2013-07-25 19:52:00,90.0,73.0,29.26,SSE,147,1.0,5.0,58,0.00,,,0.03,7.000000,,2013-07-26 00:52:00,
2013-07-25 20:02:00,90.0,73.0,29.26,SSE,152,1.0,5.0,58,0.00,,,0.03,4.000000,,2013-07-26 01:02:00,
2013-07-25 20:10:00,89.0,73.0,29.41,SE,138,1.0,3.0,60,0.00,,,0.03,1.000000,,2013-07-26 01:10:00,
2013-07-25 20:12:00,90.0,74.0,29.55,SSE,153,0.0,3.0,59,0.00,,,0.03,3.000000,,2013-07-26 01:12:00,
2013-07-25 20:22:00,89.0,73.0,29.41,SE,138,1.0,3.0,60,0.00,,,0.03,1.000000,,2013-07-26 01:22:00,
2013-07-25 20:32:00,89.0,73.0,29.41,SE,138,1.0,3.0,60,0.00,,,0.03,1.000000,,2013-07-26 01:32:00,
2013-07-25 20:43:00,89.0,73.0,29.41,SE,138,1.0,3.0,60,0.00,,,0.03,1.000000,,2013-07-26 01:43:00,
2013-07-25 20:52:00,89.0,73.0,29.41,SE,138,1.0,3.0,60,0.00,,,0.03,1.000000,,2013-07-26 01:52:00,
2013-07-25 21:02:00,89.0,73.0,29.41,SE,138,1.0,3.0,60,0.00,,,0.03,1.000000,,2013-07-26 02:02:00,
2013-07-25 22:53:00,89.0,73.0,29.42,North,0,1.0,0.0,60,0.00,,,0.03,0.000000,,2013-07-26 03:53:00,
2013-07-25 23:02:00,89.0,73.0,29.42,North,0,1.0,0.0,60,0.00,,,0.03,0.000000,,2013-07-26 04:02:00,
2013-07-25 23:12:00,85.0,73.0,29.28,SSE,152,1.0,5.0,68,0.00,,,0.03,0.000000,,2013-07-26 04:12:00,
2013-07-25 23:42:00,84.0,72.0,29.98,SE,134,1.0,6.0,68,0.00,,,0.03,0.000000,,2013-07-26 04:42:00,
2013-07-25 23:53:00,84.0,72.0,29.98,SE,134,1.0,6.0,68,0.00,,,0.03,0.000000,,2013-07-26 04:53:00,